Terminal Aerodrome Forecast
Issued by NWS Cleveland, OH

Home | Current Version | Previous Version | Graphics & Text | Print | Product List | Glossary Off
Versions: 1 2 3 4 5 6 7 8 9 10 11 12 13 14 15 16 17 18 19 20 21 22

000
FTUS41 KCLE 231600 AAB
TAFYNG
TAF AMD
KYNG 231606Z 2316/2412 30011G18KT P6SM OVC015
     FM232100 32012G20KT P6SM SCT040
     FM232300 34008KT P6SM SCT250
     FM240500 VRB03KT P6SM SCT100 BKN250=

USA.gov is the U.S. government's official web portal to all federal, state and local government web resources and services.